Time;durP1;ratioP1;P1;durP2;ratioP2;P2;SDS_P1;SDS_P2;PMS_P1;PMS_P2;Temp;Humidity;BMP_temperature;BMP_pressure;BME280_temperature;BME280_humidity;BME280_pressure;Samples;Min_cycle;Max_cycle;Signal;HPM_P1;HPM_P2
2021/12/20 00:01:27;;;;;;;25.30;4.15;;;;;;;;;;5103500;27;20139;-69
2021/12/20 00:03:53;;;;;;;20.35;3.50;;;;;;;;;;5107384;27;20052;-69
2021/12/20 00:06:19;;;;;;;15.55;2.58;;;;;;;;;;5101635;28;20052;-70
2021/12/20 00:08:45;;;;;;;24.33;3.30;;;;;;;;;;5103483;27;20439;-69
2021/12/20 00:11:12;;;;;;;10.95;2.63;;;;;;;;;;5114110;27;20056;-69
2021/12/20 00:13:38;;;;;;;19.77;3.03;;;;;;;;;;5112539;28;20051;-71
2021/12/20 00:16:04;;;;;;;19.75;3.08;;;;;;;;;;5113828;27;20051;-68
2021/12/20 00:18:30;;;;;;;19.50;3.33;;;;;;;;;;5110425;27;20052;-68
2021/12/20 00:20:57;;;;;;;18.15;2.75;;;;;;;;;;5119357;27;20457;-70
2021/12/20 00:23:23;;;;;;;19.80;3.05;;;;;;;;;;5116281;27;20058;-69
2021/12/20 00:25:50;;;;;;;22.60;4.47;;;;;;;;;;5112119;28;20459;-69
2021/12/20 00:28:16;;;;;;;17.73;3.30;;;;;;;;;;5119566;27;20052;-69
2021/12/20 00:30:43;;;;;;;19.27;3.28;;;;;;;;;;5108621;27;20057;-69
2021/12/20 00:33:09;;;;;;;18.83;2.85;;;;;;;;;;5109178;28;20040;-68
2021/12/20 00:35:36;;;;;;;22.98;3.08;;;;;;;;;;5126709;27;20098;-69
2021/12/20 00:40:48;;;;;;;18.73;3.58;;;;;;;;;;5118169;27;20052;-69
2021/12/20 00:43:15;;;;;;;9.90;2.65;;;;;;;;;;5112415;27;20052;-68
2021/12/20 00:45:41;;;;;;;18.08;2.65;;;;;;;;;;5104924;28;20055;-68
2021/12/20 00:48:07;;;;;;;14.43;4.07;;;;;;;;;;5122481;27;20583;-70
2021/12/20 00:50:36;;;;;;;19.33;3.58;;;;;;;;;;5105732;27;20548;-70
2021/12/20 00:53:02;;;;;;;17.30;3.00;;;;;;;;;;5106900;27;20055;-70
2021/12/20 00:55:29;;;;;;;19.00;3.22;;;;;;;;;;5113611;27;20056;-70
2021/12/20 00:57:57;;;;;;;18.30;2.78;;;;;;;;;;5113411;27;20078;-71
2021/12/20 01:00:27;;;;;;;20.50;3.85;;;;;;;;;;5110035;27;20063;-70
2021/12/20 01:02:54;;;;;;;15.73;2.45;;;;;;;;;;5097513;28;20495;-68
2021/12/20 01:05:21;;;;;;;23.00;3.08;;;;;;;;;;5110789;27;20052;-69
2021/12/20 01:07:47;;;;;;;19.67;3.20;;;;;;;;;;5109382;27;20485;-70
2021/12/20 01:10:15;;;;;;;24.95;3.45;;;;;;;;;;5102022;28;20049;-68
2021/12/20 01:12:44;;;;;;;22.30;4.00;;;;;;;;;;5097809;28;20060;-69
2021/12/20 01:15:12;;;;;;;21.38;3.55;;;;;;;;;;5110376;27;20060;-68
2021/12/20 01:17:39;;;;;;;25.17;3.33;;;;;;;;;;5102235;27;20099;-68
2021/12/20 01:20:06;;;;;;;27.17;3.17;;;;;;;;;;5110710;28;20063;-70
2021/12/20 01:22:33;;;;;;;18.75;3.22;;;;;;;;;;5110842;28;20553;-69
2021/12/20 01:24:59;;;;;;;13.52;2.75;;;;;;;;;;5102382;28;20058;-70
2021/12/20 01:27:25;;;;;;;18.15;3.20;;;;;;;;;;5095875;27;20539;-70
2021/12/20 01:29:51;;;;;;;20.30;3.42;;;;;;;;;;5109660;28;20448;-71
2021/12/20 01:32:18;;;;;;;32.00;3.80;;;;;;;;;;5092865;28;20055;-70
2021/12/20 01:34:44;;;;;;;24.85;3.17;;;;;;;;;;5111532;28;20052;-70
2021/12/20 01:37:13;;;;;;;19.42;4.32;;;;;;;;;;5098645;27;20062;-70
2021/12/20 01:39:39;;;;;;;17.48;3.05;;;;;;;;;;5098438;28;20492;-68
2021/12/20 01:42:06;;;;;;;25.45;3.40;;;;;;;;;;5114001;27;20052;-69
2021/12/20 01:44:32;;;;;;;23.77;3.53;;;;;;;;;;5106953;27;20519;-69
2021/12/20 01:47:01;;;;;;;16.45;3.15;;;;;;;;;;5110231;27;20131;-69
2021/12/20 01:49:30;;;;;;;24.15;3.15;;;;;;;;;;5109462;28;20058;-71
2021/12/20 01:52:10;;;;;;;23.58;3.92;;;;;;;;;;5099500;28;20059;-69
2021/12/20 01:54:37;;;;;;;15.18;3.15;;;;;;;;;;5106503;27;20506;-70
2021/12/20 01:57:04;;;;;;;22.23;3.67;;;;;;;;;;5112683;27;20052;-69
2021/12/20 01:59:30;;;;;;;14.25;2.67;;;;;;;;;;5107137;27;20049;-69
2021/12/20 02:01:56;;;;;;;24.02;3.13;;;;;;;;;;5107072;28;20051;-70
2021/12/20 02:04:23;;;;;;;17.17;2.78;;;;;;;;;;5105743;27;20053;-68
2021/12/20 02:06:50;;;;;;;22.77;3.70;;;;;;;;;;5103406;28;20053;-70
2021/12/20 02:09:18;;;;;;;21.35;3.35;;;;;;;;;;5111703;27;20064;-70
2021/12/20 02:11:46;;;;;;;20.25;3.40;;;;;;;;;;5112246;27;20044;-70
2021/12/20 02:14:13;;;;;;;18.05;3.40;;;;;;;;;;5109765;27;20075;-70
2021/12/20 02:16:40;;;;;;;19.70;3.35;;;;;;;;;;5093131;28;20399;-70
2021/12/20 02:19:14;;;;;;;16.25;3.65;;;;;;;;;;5104107;27;20052;-71
2021/12/20 02:21:42;;;;;;;19.73;3.63;;;;;;;;;;5106170;27;20080;-69
2021/12/20 02:24:08;;;;;;;17.20;3.33;;;;;;;;;;5106154;27;20055;-70
2021/12/20 02:26:36;;;;;;;28.08;3.47;;;;;;;;;;5104394;28;20468;-70
2021/12/20 02:29:05;;;;;;;29.30;5.18;;;;;;;;;;5103551;27;20056;-69
2021/12/20 02:37:27;;;;;;;21.80;3.45;;;;;;;;;;5099753;28;20139;-69
2021/12/20 02:39:54;;;;;;;22.58;3.70;;;;;;;;;;5110838;27;20127;-69
2021/12/20 02:42:25;;;;;;;25.58;3.30;;;;;;;;;;5108628;27;20054;-69
2021/12/20 02:45:05;;;;;;;21.60;3.63;;;;;;;;;;5115684;27;20056;-72
2021/12/20 02:47:31;;;;;;;19.85;3.33;;;;;;;;;;5108634;28;20131;-69
2021/12/20 02:49:58;;;;;;;18.77;3.40;;;;;;;;;;5119571;27;20055;-70
2021/12/20 02:52:25;;;;;;;20.65;3.67;;;;;;;;;;5115003;27;20135;-71
2021/12/20 02:54:52;;;;;;;17.88;2.55;;;;;;;;;;5112308;27;20072;-70
2021/12/20 02:57:19;;;;;;;15.32;3.25;;;;;;;;;;5114860;27;20518;-70
2021/12/20 02:59:45;;;;;;;20.42;3.25;;;;;;;;;;5114271;27;20052;-69
2021/12/20 03:02:12;;;;;;;25.52;4.05;;;;;;;;;;5109308;27;20545;-71
2021/12/20 03:04:39;;;;;;;16.65;3.05;;;;;;;;;;5105360;28;20064;-69
2021/12/20 03:07:10;;;;;;;24.08;3.95;;;;;;;;;;5099723;27;20060;-70
2021/12/20 03:09:38;;;;;;;27.48;5.30;;;;;;;;;;5104562;27;20049;-70
2021/12/20 03:12:07;;;;;;;16.73;3.15;;;;;;;;;;5115070;27;20131;-71
2021/12/20 03:14:40;;;;;;;22.33;3.17;;;;;;;;;;5114293;27;20454;-69
2021/12/20 03:17:07;;;;;;;17.35;2.75;;;;;;;;;;5112714;27;20063;-69
2021/12/20 03:19:34;;;;;;;12.18;2.45;;;;;;;;;;5106221;27;20053;-71
2021/12/20 03:22:00;;;;;;;14.90;2.83;;;;;;;;;;5113226;27;20086;-70
2021/12/20 03:24:27;;;;;;;20.00;3.88;;;;;;;;;;5114557;28;20048;-70
2021/12/20 03:26:53;;;;;;;18.25;3.13;;;;;;;;;;5111420;27;20047;-69
2021/12/20 03:29:20;;;;;;;12.90;3.40;;;;;;;;;;5117022;27;20063;-69
2021/12/20 03:31:46;;;;;;;19.73;3.03;;;;;;;;;;5114944;27;20076;-70
2021/12/20 03:34:13;;;;;;;18.80;3.75;;;;;;;;;;5106703;27;20491;-70
2021/12/20 03:36:40;;;;;;;19.63;2.90;;;;;;;;;;5110761;28;20062;-69
2021/12/20 03:39:07;;;;;;;19.08;2.72;;;;;;;;;;5106105;27;20048;-70
2021/12/20 03:41:34;;;;;;;22.48;2.85;;;;;;;;;;5107406;27;20049;-72
2021/12/20 03:44:01;;;;;;;22.88;2.85;;;;;;;;;;5104510;27;20143;-71
2021/12/20 03:46:27;;;;;;;24.05;4.15;;;;;;;;;;5107323;28;20056;-71
2021/12/20 03:48:53;;;;;;;16.77;3.45;;;;;;;;;;5109887;27;20052;-70
2021/12/20 03:51:19;;;;;;;19.08;3.33;;;;;;;;;;5107282;28;20055;-70
2021/12/20 03:53:46;;;;;;;18.40;2.65;;;;;;;;;;5106148;28;20054;-70
2021/12/20 03:56:12;;;;;;;21.83;3.03;;;;;;;;;;5109212;27;20526;-70
2021/12/20 03:58:38;;;;;;;21.45;3.42;;;;;;;;;;5113049;28;20119;-69
2021/12/20 04:01:07;;;;;;;14.68;2.60;;;;;;;;;;5099209;28;20053;-70
2021/12/20 04:03:35;;;;;;;17.70;3.75;;;;;;;;;;5112806;27;20048;-71
2021/12/20 04:06:07;;;;;;;12.82;2.78;;;;;;;;;;5112671;27;20152;-70
2021/12/20 04:08:33;;;;;;;18.83;2.75;;;;;;;;;;5102948;27;20049;-70
2021/12/20 04:10:59;;;;;;;16.80;3.92;;;;;;;;;;5105491;28;20522;-70
2021/12/20 04:13:26;;;;;;;19.63;3.40;;;;;;;;;;5097277;28;20060;-70
2021/12/20 04:15:53;;;;;;;20.83;3.38;;;;;;;;;;5111958;28;20048;-70
2021/12/20 04:18:21;;;;;;;22.80;3.97;;;;;;;;;;5113289;27;20048;-69
2021/12/20 04:20:47;;;;;;;26.65;4.97;;;;;;;;;;5101337;27;20492;-69
2021/12/20 04:23:13;;;;;;;14.00;2.50;;;;;;;;;;5105453;27;20053;-70
2021/12/20 04:25:39;;;;;;;14.73;2.97;;;;;;;;;;5112839;27;20049;-70
2021/12/20 04:28:06;;;;;;;17.25;2.78;;;;;;;;;;5101182;27;20519;-70
2021/12/20 04:30:32;;;;;;;22.98;2.58;;;;;;;;;;5105167;27;20416;-68
2021/12/20 04:32:59;;;;;;;16.27;3.38;;;;;;;;;;5100972;27;20048;-68
2021/12/20 04:35:25;;;;;;;17.15;3.33;;;;;;;;;;5105835;27;20151;-69
2021/12/20 04:37:53;;;;;;;17.10;3.20;;;;;;;;;;5114748;27;20050;-69
2021/12/20 04:40:21;;;;;;;18.33;2.85;;;;;;;;;;5115598;27;20062;-70
2021/12/20 04:42:49;;;;;;;23.23;3.58;;;;;;;;;;5115183;27;20048;-70
2021/12/20 04:45:16;;;;;;;17.10;2.40;;;;;;;;;;5121476;27;20055;-70
2021/12/20 04:47:42;;;;;;;23.05;3.22;;;;;;;;;;5113952;27;20059;-69
2021/12/20 04:50:09;;;;;;;16.20;2.97;;;;;;;;;;5126402;27;20135;-71
2021/12/20 04:52:36;;;;;;;14.50;2.58;;;;;;;;;;5129246;27;20132;-70
2021/12/20 04:55:05;;;;;;;13.95;2.97;;;;;;;;;;5131251;27;20483;-69
2021/12/20 04:57:32;;;;;;;19.30;3.88;;;;;;;;;;5133813;27;20043;-70
2021/12/20 04:59:58;;;;;;;12.70;2.40;;;;;;;;;;5112822;27;20518;-69
2021/12/20 05:02:25;;;;;;;18.55;5.07;;;;;;;;;;5117664;27;20047;-70
2021/12/20 05:04:51;;;;;;;23.45;3.25;;;;;;;;;;5116936;27;20052;-69
2021/12/20 05:07:17;;;;;;;15.63;2.58;;;;;;;;;;5113324;27;20047;-69
2021/12/20 05:09:44;;;;;;;17.48;4.15;;;;;;;;;;5119517;27;20066;-70
2021/12/20 05:12:11;;;;;;;17.92;2.97;;;;;;;;;;5131017;27;20508;-70
2021/12/20 05:14:40;;;;;;;14.73;2.88;;;;;;;;;;5126475;27;20055;-70
2021/12/20 05:17:07;;;;;;;12.57;2.65;;;;;;;;;;5116861;27;20570;-69
2021/12/20 05:19:33;;;;;;;17.52;4.65;;;;;;;;;;5118296;27;20133;-70
2021/12/20 05:22:00;;;;;;;13.85;2.42;;;;;;;;;;5121225;27;20143;-69
2021/12/20 05:24:26;;;;;;;14.18;2.88;;;;;;;;;;5114064;27;20048;-69
2021/12/20 05:26:53;;;;;;;21.33;3.70;;;;;;;;;;5112510;27;20054;-69
2021/12/20 05:29:19;;;;;;;22.67;3.60;;;;;;;;;;5111332;27;20056;-69
2021/12/20 05:31:45;;;;;;;18.73;3.25;;;;;;;;;;5112540;27;20503;-69
2021/12/20 05:34:12;;;;;;;20.10;3.45;;;;;;;;;;5114647;27;20063;-69
2021/12/20 05:36:38;;;;;;;18.63;2.80;;;;;;;;;;5095914;27;20059;-69
2021/12/20 05:39:04;;;;;;;22.77;3.08;;;;;;;;;;5102943;27;20063;-69
2021/12/20 05:41:31;;;;;;;18.50;2.65;;;;;;;;;;5108837;27;20052;-69
2021/12/20 05:43:57;;;;;;;14.60;2.90;;;;;;;;;;5109597;28;20055;-69
2021/12/20 05:46:23;;;;;;;13.10;2.33;;;;;;;;;;5113368;27;20052;-71
2021/12/20 05:48:49;;;;;;;17.45;2.58;;;;;;;;;;5092846;28;20427;-70
2021/12/20 05:51:16;;;;;;;14.55;2.70;;;;;;;;;;5092952;28;20056;-70
2021/12/20 05:53:42;;;;;;;18.05;2.40;;;;;;;;;;5092891;28;20049;-70
2021/12/20 05:56:09;;;;;;;11.30;2.00;;;;;;;;;;5092640;28;20056;-70
2021/12/20 05:58:35;;;;;;;13.68;3.25;;;;;;;;;;5097938;27;20047;-70
2021/12/20 06:01:01;;;;;;;11.35;2.13;;;;;;;;;;5104736;27;20058;-70
2021/12/20 06:03:28;;;;;;;20.88;2.35;;;;;;;;;;5096484;27;20056;-71
2021/12/20 06:05:54;;;;;;;11.73;1.75;;;;;;;;;;5096532;28;20058;-70
2021/12/20 06:08:20;;;;;;;15.38;2.63;;;;;;;;;;5114196;27;20055;-71
2021/12/20 06:10:46;;;;;;;15.63;2.35;;;;;;;;;;5097294;28;20053;-70
2021/12/20 06:13:13;;;;;;;14.98;2.53;;;;;;;;;;5116153;27;20056;-71
2021/12/20 06:15:39;;;;;;;17.42;2.55;;;;;;;;;;5101682;27;20058;-71
2021/12/20 06:18:06;;;;;;;9.32;2.60;;;;;;;;;;5110396;27;20052;-68
2021/12/20 06:20:32;;;;;;;11.93;1.92;;;;;;;;;;5099919;27;20118;-70
2021/12/20 06:22:58;;;;;;;11.48;2.22;;;;;;;;;;5107553;27;20052;-69
2021/12/20 06:25:26;;;;;;;11.00;1.67;;;;;;;;;;5106426;27;20048;-69
2021/12/20 06:27:53;;;;;;;12.10;2.15;;;;;;;;;;5099643;27;20055;-70
2021/12/20 06:30:19;;;;;;;14.05;2.47;;;;;;;;;;5098679;28;20048;-69
2021/12/20 06:32:46;;;;;;;15.05;2.42;;;;;;;;;;5112015;28;20058;-69
2021/12/20 06:35:32;;;;;;;9.80;1.98;;;;;;;;;;5117327;27;20496;-68
2021/12/20 06:38:00;;;;;;;18.52;2.75;;;;;;;;;;5112156;27;20052;-69
2021/12/20 06:40:27;;;;;;;10.13;2.28;;;;;;;;;;5113114;27;20131;-67
2021/12/20 06:42:54;;;;;;;12.75;2.45;;;;;;;;;;5118173;27;20053;-70
2021/12/20 06:45:20;;;;;;;10.40;1.80;;;;;;;;;;5112454;28;20562;-69
2021/12/20 06:47:47;;;;;;;12.93;1.88;;;;;;;;;;5113046;27;20051;-69
2021/12/20 06:50:13;;;;;;;13.07;2.78;;;;;;;;;;5112539;27;20486;-70
2021/12/20 06:52:39;;;;;;;14.13;2.00;;;;;;;;;;5112954;28;20056;-71
2021/12/20 06:55:06;;;;;;;15.88;2.58;;;;;;;;;;5113686;27;20501;-68
2021/12/20 06:57:32;;;;;;;13.13;2.47;;;;;;;;;;5112903;27;20059;-68
2021/12/20 07:00:00;;;;;;;13.40;2.47;;;;;;;;;;5113988;27;20074;-68
2021/12/20 07:02:27;;;;;;;13.93;2.10;;;;;;;;;;5113734;27;20139;-69
2021/12/20 07:04:54;;;;;;;13.80;2.63;;;;;;;;;;5127563;27;20508;-69
2021/12/20 07:07:20;;;;;;;12.52;2.42;;;;;;;;;;5114566;27;20090;-68
2021/12/20 07:09:46;;;;;;;11.85;1.92;;;;;;;;;;5113710;27;20047;-68
2021/12/20 07:12:13;;;;;;;10.20;2.45;;;;;;;;;;5115798;27;20052;-69
2021/12/20 07:14:40;;;;;;;7.25;1.85;;;;;;;;;;5115489;27;20522;-69
2021/12/20 07:17:06;;;;;;;9.07;1.75;;;;;;;;;;5114430;27;20048;-69
2021/12/20 07:19:33;;;;;;;7.90;1.70;;;;;;;;;;5113440;28;20063;-68
2021/12/20 07:21:59;;;;;;;10.95;2.50;;;;;;;;;;5112378;27;20487;-69
2021/12/20 07:24:26;;;;;;;17.20;2.75;;;;;;;;;;5114827;27;20093;-69
2021/12/20 07:26:52;;;;;;;13.05;2.67;;;;;;;;;;5115489;28;20463;-69
2021/12/20 07:29:18;;;;;;;12.57;2.28;;;;;;;;;;5121857;27;20058;-70
2021/12/20 07:31:45;;;;;;;17.55;2.47;;;;;;;;;;5129502;27;20056;-69
2021/12/20 07:34:11;;;;;;;13.02;3.00;;;;;;;;;;5124873;27;20052;-69
2021/12/20 07:36:38;;;;;;;12.00;3.05;;;;;;;;;;5123557;27;20044;-69
2021/12/20 07:39:04;;;;;;;15.70;3.67;;;;;;;;;;5120850;27;20063;-69
2021/12/20 07:41:51;;;;;;;12.60;2.83;;;;;;;;;;5135121;27;20117;-69
2021/12/20 07:44:17;;;;;;;17.30;3.28;;;;;;;;;;5133825;27;20048;-69
2021/12/20 07:46:44;;;;;;;22.33;2.80;;;;;;;;;;5127410;27;20138;-69
2021/12/20 07:49:10;;;;;;;13.60;2.50;;;;;;;;;;5112325;28;20135;-70
2021/12/20 07:51:36;;;;;;;22.02;3.17;;;;;;;;;;5112558;28;20044;-70
2021/12/20 07:54:03;;;;;;;9.80;2.47;;;;;;;;;;5112974;27;20060;-70
2021/12/20 07:56:30;;;;;;;15.32;3.55;;;;;;;;;;5111942;28;20089;-69
2021/12/20 07:58:56;;;;;;;14.43;2.78;;;;;;;;;;5112087;27;20056;-69
2021/12/20 08:01:23;;;;;;;16.08;3.20;;;;;;;;;;5112722;28;20052;-70
2021/12/20 08:03:50;;;;;;;12.43;2.40;;;;;;;;;;5105089;28;20048;-69
2021/12/20 08:06:16;;;;;;;11.30;2.85;;;;;;;;;;5111018;28;20106;-69
2021/12/20 08:08:43;;;;;;;9.57;2.25;;;;;;;;;;5112688;27;20086;-69
2021/12/20 08:11:09;;;;;;;8.10;2.80;;;;;;;;;;5113242;27;20047;-69
2021/12/20 08:13:44;;;;;;;12.88;3.08;;;;;;;;;;5112840;27;20074;-70
2021/12/20 08:16:11;;;;;;;9.83;2.23;;;;;;;;;;5111575;27;20044;-69
2021/12/20 08:18:38;;;;;;;15.43;3.20;;;;;;;;;;5112578;27;20052;-69
2021/12/20 08:21:05;;;;;;;9.20;2.92;;;;;;;;;;5112821;27;20052;-70
2021/12/20 08:23:31;;;;;;;13.38;2.65;;;;;;;;;;5112888;27;20048;-70
2021/12/20 08:25:57;;;;;;;12.95;3.08;;;;;;;;;;5112796;27;20857;-70
2021/12/20 08:28:24;;;;;;;15.43;4.30;;;;;;;;;;5112778;27;20087;-70
2021/12/20 08:30:50;;;;;;;12.60;3.45;;;;;;;;;;5114663;27;20040;-71
2021/12/20 08:33:16;;;;;;;13.23;2.42;;;;;;;;;;5114047;27;20131;-71
2021/12/20 08:35:43;;;;;;;10.40;2.70;;;;;;;;;;5113922;27;20499;-70
2021/12/20 08:38:09;;;;;;;12.93;3.22;;;;;;;;;;5113586;28;20048;-70
2021/12/20 08:40:36;;;;;;;17.42;3.60;;;;;;;;;;5114042;27;20055;-70
2021/12/20 08:43:02;;;;;;;18.88;3.67;;;;;;;;;;5113198;28;20048;-70
2021/12/20 08:45:28;;;;;;;19.40;4.07;;;;;;;;;;5107319;28;20078;-70
2021/12/20 08:47:55;;;;;;;16.85;3.40;;;;;;;;;;5091684;28;20128;-70
2021/12/20 08:50:22;;;;;;;12.18;3.63;;;;;;;;;;5107865;27;20051;-70
2021/12/20 08:52:48;;;;;;;14.40;3.75;;;;;;;;;;5108918;27;20059;-69
2021/12/20 08:55:15;;;;;;;10.73;3.17;;;;;;;;;;5112022;27;20127;-70
2021/12/20 08:57:42;;;;;;;15.45;3.50;;;;;;;;;;5111635;28;20521;-70
2021/12/20 09:00:10;;;;;;;11.20;3.38;;;;;;;;;;5111333;27;20139;-69
2021/12/20 09:02:37;;;;;;;8.25;3.03;;;;;;;;;;5119942;27;20101;-70
2021/12/20 09:05:04;;;;;;;14.20;3.85;;;;;;;;;;5113446;27;20522;-71
2021/12/20 09:07:31;;;;;;;17.33;4.05;;;;;;;;;;5110519;27;20514;-71
2021/12/20 09:09:57;;;;;;;17.63;3.45;;;;;;;;;;5111680;27;20670;-71
2021/12/20 09:12:23;;;;;;;16.38;4.38;;;;;;;;;;5111716;27;20134;-72
2021/12/20 09:14:50;;;;;;;25.08;5.03;;;;;;;;;;5108443;27;20140;-69
2021/12/20 09:17:17;;;;;;;18.02;3.80;;;;;;;;;;5099287;28;20135;-70
2021/12/20 09:19:43;;;;;;;18.10;3.63;;;;;;;;;;5123198;27;20063;-70
2021/12/20 09:22:11;;;;;;;17.95;4.82;;;;;;;;;;5127617;27;20063;-69
2021/12/20 09:24:38;;;;;;;13.55;3.20;;;;;;;;;;5131255;27;20200;-70
2021/12/20 09:27:05;;;;;;;12.13;2.78;;;;;;;;;;5113652;27;20150;-70
2021/12/20 09:29:32;;;;;;;12.50;2.95;;;;;;;;;;5117303;27;20048;-69
2021/12/20 09:31:58;;;;;;;14.15;2.50;;;;;;;;;;5116829;27;20139;-70
2021/12/20 09:34:24;;;;;;;10.27;2.88;;;;;;;;;;5121700;27;20058;-71
2021/12/20 09:36:54;;;;;;;18.17;3.38;;;;;;;;;;5106389;27;20095;-71
2021/12/20 09:39:21;;;;;;;11.95;2.35;;;;;;;;;;5105030;27;20135;-71
2021/12/20 09:44:15;;;;;;;12.70;2.40;;;;;;;;;;5113427;27;20132;-71
2021/12/20 09:46:41;;;;;;;14.27;3.03;;;;;;;;;;5116293;27;20529;-70
2021/12/20 09:49:08;;;;;;;17.70;2.47;;;;;;;;;;5105837;27;20072;-70
2021/12/20 09:51:35;;;;;;;9.73;3.00;;;;;;;;;;5122309;27;20056;-71
2021/12/20 09:54:02;;;;;;;13.20;2.40;;;;;;;;;;5108679;27;20712;-72
2021/12/20 09:56:29;;;;;;;11.18;2.03;;;;;;;;;;5110838;27;20147;-71
2021/12/20 09:58:57;;;;;;;8.85;2.13;;;;;;;;;;5115031;27;20058;-71
2021/12/20 10:01:24;;;;;;;6.95;1.70;;;;;;;;;;5115537;27;20476;-71
2021/12/20 10:03:52;;;;;;;11.70;2.78;;;;;;;;;;5115071;27;20494;-69
2021/12/20 10:06:19;;;;;;;8.93;1.65;;;;;;;;;;5123523;27;20047;-71
2021/12/20 10:08:51;;;;;;;6.93;1.80;;;;;;;;;;5115582;27;20091;-69
2021/12/20 10:11:22;;;;;;;7.60;2.05;;;;;;;;;;5112486;27;20059;-71
2021/12/20 10:13:49;;;;;;;9.05;2.50;;;;;;;;;;5114259;27;20055;-71
2021/12/20 10:16:19;;;;;;;11.95;2.97;;;;;;;;;;5113061;27;20518;-71
2021/12/20 10:18:46;;;;;;;16.23;2.20;;;;;;;;;;5121380;27;20048;-70
2021/12/20 10:21:13;;;;;;;12.25;2.28;;;;;;;;;;5115925;27;20139;-70
2021/12/20 10:23:46;;;;;;;10.65;1.67;;;;;;;;;;5116328;27;20079;-70
2021/12/20 10:26:14;;;;;;;6.95;1.85;;;;;;;;;;5122776;27;20058;-69
2021/12/20 10:28:42;;;;;;;10.75;2.47;;;;;;;;;;5111941;27;20052;-70
2021/12/20 10:31:10;;;;;;;9.77;2.72;;;;;;;;;;5114619;27;20142;-70
2021/12/20 10:33:37;;;;;;;9.95;2.15;;;;;;;;;;5114078;27;20055;-70
2021/12/20 10:36:04;;;;;;;20.80;2.63;;;;;;;;;;5113405;27;20048;-68
2021/12/20 10:38:33;;;;;;;13.05;2.42;;;;;;;;;;5113354;27;20052;-70
2021/12/20 10:41:02;;;;;;;11.80;2.53;;;;;;;;;;5114529;27;20110;-70
2021/12/20 10:43:40;;;;;;;13.30;2.40;;;;;;;;;;5114066;27;20403;-69
2021/12/20 10:46:11;;;;;;;10.80;2.30;;;;;;;;;;5111270;27;20054;-69
2021/12/20 10:48:42;;;;;;;8.13;1.83;;;;;;;;;;5115316;27;20055;-69
2021/12/20 10:51:15;;;;;;;7.50;1.63;;;;;;;;;;5113490;27;20058;-70
2021/12/20 10:53:46;;;;;;;13.80;2.28;;;;;;;;;;5118329;27;20513;-70
2021/12/20 10:56:12;;;;;;;10.68;2.22;;;;;;;;;;5121224;27;20047;-69
2021/12/20 10:58:51;;;;;;;7.18;1.70;;;;;;;;;;5112397;27;20139;-69
2021/12/20 11:04:06;;;;;;;7.35;1.92;;;;;;;;;;5101898;28;20049;-70
2021/12/20 11:09:19;;;;;;;;;;;;;;;;;;5112988;28;20079;-71
2021/12/20 11:11:51;;;;;;;8.75;1.85;;;;;;;;;;5111836;28;43898;-71
2021/12/20 11:14:19;;;;;;;6.47;1.92;;;;;;;;;;5119406;27;20047;-71
2021/12/20 11:16:52;;;;;;;14.05;2.10;;;;;;;;;;5129982;27;20055;-73
2021/12/20 11:19:21;;;;;;;6.97;1.85;;;;;;;;;;5129570;27;20543;-70
2021/12/20 11:22:02;;;;;;;8.88;1.73;;;;;;;;;;5116395;27;20484;-72
2021/12/20 11:24:30;;;;;;;8.45;1.70;;;;;;;;;;5122618;27;20044;-71
2021/12/20 11:26:58;;;;;;;11.40;1.90;;;;;;;;;;5133725;27;20154;-75
2021/12/20 11:29:24;;;;;;;7.80;1.70;;;;;;;;;;5125881;27;20476;-73
2021/12/20 11:31:52;;;;;;;8.57;1.60;;;;;;;;;;5135559;27;20058;-72
2021/12/20 11:34:19;;;;;;;12.57;1.95;;;;;;;;;;5134838;27;20134;-71
2021/12/20 11:36:45;;;;;;;7.63;1.80;;;;;;;;;;5132272;27;20542;-72
2021/12/20 11:39:11;;;;;;;8.00;1.98;;;;;;;;;;5132838;27;20051;-72
2021/12/20 11:41:38;;;;;;;11.45;1.65;;;;;;;;;;5124102;27;20058;-69
2021/12/20 11:44:06;;;;;;;12.57;2.50;;;;;;;;;;5133396;27;20050;-70
2021/12/20 11:46:47;;;;;;;8.27;1.80;;;;;;;;;;5126767;27;20138;-71
2021/12/20 11:49:17;;;;;;;10.15;2.28;;;;;;;;;;5130263;27;20047;-70
2021/12/20 11:52:01;;;;;;;9.15;2.13;;;;;;;;;;5132381;27;20139;-69
2021/12/20 11:54:42;;;;;;;10.30;2.20;;;;;;;;;;5135861;27;20083;-68
2021/12/20 11:57:28;;;;;;;11.93;2.05;;;;;;;;;;5132957;27;20048;-70
2021/12/20 11:59:56;;;;;;;9.00;1.95;;;;;;;;;;5132498;27;20054;-70
2021/12/20 12:02:22;;;;;;;6.68;1.80;;;;;;;;;;5132036;27;20047;-70
2021/12/20 12:04:55;;;;;;;9.05;1.80;;;;;;;;;;5128807;27;20941;-69
2021/12/20 12:07:23;;;;;;;7.57;1.70;;;;;;;;;;5133184;27;20567;-69
2021/12/20 12:09:56;;;;;;;10.93;2.65;;;;;;;;;;5134478;27;20091;-71
2021/12/20 12:12:23;;;;;;;5.57;1.80;;;;;;;;;;5132661;27;20051;-70
2021/12/20 12:15:07;;;;;;;9.65;2.22;;;;;;;;;;5131897;27;20058;-71
2021/12/20 12:17:52;;;;;;;10.07;2.10;;;;;;;;;;5128560;27;20530;-70
2021/12/20 12:20:35;;;;;;;8.88;2.08;;;;;;;;;;5134263;27;20056;-70
2021/12/20 12:23:08;;;;;;;13.55;1.60;;;;;;;;;;5123011;27;20151;-70
2021/12/20 12:25:36;;;;;;;10.40;2.35;;;;;;;;;;5135730;27;20053;-70
2021/12/20 12:28:03;;;;;;;10.93;2.88;;;;;;;;;;5141764;27;20630;-69
2021/12/20 12:30:30;;;;;;;13.23;2.20;;;;;;;;;;5133357;27;20087;-70
2021/12/20 12:33:02;;;;;;;9.63;1.88;;;;;;;;;;5128576;27;20055;-70
2021/12/20 12:35:39;;;;;;;13.60;2.03;;;;;;;;;;5132114;27;20110;-69
2021/12/20 12:38:11;;;;;;;7.55;2.17;;;;;;;;;;5132268;27;20549;-67
2021/12/20 12:40:38;;;;;;;8.75;1.83;;;;;;;;;;5131553;27;20101;-70
2021/12/20 12:43:05;;;;;;;7.95;1.60;;;;;;;;;;5132194;27;20597;-70
2021/12/20 12:45:50;;;;;;;9.60;2.08;;;;;;;;;;5131041;27;20450;-68
2021/12/20 12:48:32;;;;;;;3.72;1.55;;;;;;;;;;5133590;27;20100;-68
2021/12/20 12:51:17;;;;;;;10.55;2.20;;;;;;;;;;5133224;27;20079;-68
2021/12/20 12:53:45;;;;;;;7.93;1.70;;;;;;;;;;5148483;27;20131;-68
2021/12/20 12:56:24;;;;;;;5.40;1.75;;;;;;;;;;5133418;27;20556;-68
2021/12/20 12:59:19;;;;;;;9.57;2.15;;;;;;;;;;5132220;27;20517;-68
2021/12/20 13:01:53;;;;;;;6.60;1.75;;;;;;;;;;5133975;27;20522;-68
2021/12/20 13:04:47;;;;;;;11.80;1.92;;;;;;;;;;5132921;27;20461;-68
2021/12/20 13:07:25;;;;;;;8.57;1.52;;;;;;;;;;5145066;27;20058;-69
2021/12/20 13:09:53;;;;;;;7.43;1.80;;;;;;;;;;5131236;27;20596;-68
2021/12/20 13:15:52;;;;;;;9.45;2.70;;;;;;;;;;5131551;27;20143;-68
2021/12/20 13:18:06;;;;;;;8.85;1.98;;;;;;;;;;5122534;27;20406;-68
2021/12/20 13:20:42;;;;;;;8.40;1.75;;;;;;;;;;5142053;27;20143;-69
2021/12/20 13:23:08;;;;;;;16.90;1.92;;;;;;;;;;5152642;27;20136;-68
2021/12/20 13:25:51;;;;;;;14.45;1.92;;;;;;;;;;5136145;27;20048;-69
2021/12/20 13:28:19;;;;;;;10.18;2.83;;;;;;;;;;5131958;27;20130;-70
2021/12/20 13:31:09;;;;;;;12.38;2.42;;;;;;;;;;5132615;27;20056;-69
2021/12/20 13:33:37;;;;;;;8.63;2.45;;;;;;;;;;5090908;27;20210;-71
2021/12/20 13:36:08;;;;;;;6.53;1.98;;;;;;;;;;5127677;27;20151;-69
2021/12/20 13:38:36;;;;;;;5.53;1.55;;;;;;;;;;5129888;27;20047;-69
2021/12/20 13:41:15;;;;;;;4.68;1.52;;;;;;;;;;5113630;27;20052;-69
2021/12/20 13:43:47;;;;;;;11.00;1.77;;;;;;;;;;5133807;27;20531;-70
2021/12/20 13:46:17;;;;;;;5.72;1.52;;;;;;;;;;5140665;27;20071;-69
2021/12/20 13:48:47;;;;;;;7.75;1.70;;;;;;;;;;5142224;27;20491;-69
2021/12/20 13:51:15;;;;;;;17.48;2.38;;;;;;;;;;5126894;27;20052;-69
2021/12/20 13:53:42;;;;;;;10.80;2.08;;;;;;;;;;5132804;27;20257;-70
2021/12/20 13:56:08;;;;;;;8.93;1.88;;;;;;;;;;5144413;27;20048;-70
2021/12/20 13:58:37;;;;;;;13.25;2.67;;;;;;;;;;5133218;27;20055;-69
2021/12/20 14:01:03;;;;;;;9.43;2.58;;;;;;;;;;5133091;27;20062;-69
2021/12/20 14:03:30;;;;;;;9.00;1.75;;;;;;;;;;5130917;27;20055;-70
2021/12/20 14:05:56;;;;;;;8.95;2.38;;;;;;;;;;5131216;27;20566;-70
2021/12/20 14:08:25;;;;;;;9.57;1.80;;;;;;;;;;5130910;27;20059;-69
2021/12/20 14:10:52;;;;;;;7.88;1.95;;;;;;;;;;5131223;27;20051;-70
2021/12/20 14:13:24;;;;;;;10.93;2.20;;;;;;;;;;5131183;27;20058;-70
2021/12/20 14:16:01;;;;;;;5.80;1.77;;;;;;;;;;5129936;27;20167;-70
2021/12/20 14:18:31;;;;;;;9.55;2.75;;;;;;;;;;5130962;27;20079;-70
2021/12/20 14:20:57;;;;;;;7.80;2.60;;;;;;;;;;5130423;27;20059;-69
2021/12/20 14:23:27;;;;;;;8.23;2.17;;;;;;;;;;5115467;27;20052;-70
2021/12/20 14:26:16;;;;;;;15.63;2.58;;;;;;;;;;5133420;27;20148;-70
2021/12/20 14:28:46;;;;;;;9.27;2.33;;;;;;;;;;5122037;27;20079;-70
2021/12/20 14:31:19;;;;;;;8.55;2.25;;;;;;;;;;5134768;27;20130;-70
2021/12/20 14:33:49;;;;;;;8.20;2.40;;;;;;;;;;5134099;27;20066;-70
2021/12/20 14:36:17;;;;;;;8.52;2.38;;;;;;;;;;5134164;27;20139;-70
2021/12/20 14:38:45;;;;;;;5.88;2.00;;;;;;;;;;5124261;27;20055;-70
2021/12/20 14:41:25;;;;;;;18.50;2.92;;;;;;;;;;5130677;27;20058;-70
2021/12/20 14:43:51;;;;;;;10.80;3.22;;;;;;;;;;5134323;27;20050;-70
2021/12/20 14:46:32;;;;;;;10.00;2.47;;;;;;;;;;5133018;27;20054;-71
2021/12/20 14:49:13;;;;;;;8.02;2.30;;;;;;;;;;5132644;27;20078;-70
2021/12/20 14:51:39;;;;;;;10.98;2.25;;;;;;;;;;5123580;27;20139;-71
2021/12/20 14:54:08;;;;;;;12.05;3.13;;;;;;;;;;5132890;27;20086;-71
2021/12/20 14:56:35;;;;;;;12.00;2.10;;;;;;;;;;5128583;27;20497;-69
2021/12/20 14:59:02;;;;;;;8.48;3.42;;;;;;;;;;5130148;27;20055;-72
2021/12/20 15:01:29;;;;;;;12.13;2.38;;;;;;;;;;5151546;27;20061;-72